Time;durP1;ratioP1;P1;durP2;ratioP2;P2;SDS_P1;SDS_P2;PMS_P1;PMS_P2;Temp;Humidity;BMP_temperature;BMP_pressure;BME280_temperature;BME280_humidity;BME280_pressure;Samples;Min_cycle;Max_cycle;Signal;HPM_P1;HPM_P2
2022/09/25 00:00:18;;;;;;;13.27;5.32;;;;;;;15.80;100.00;100555.59;5049155;28;20048;-66
2022/09/25 00:02:43;;;;;;;17.67;6.32;;;;;;;15.81;100.00;100551.75;5044469;28;20041;-65
2022/09/25 00:05:09;;;;;;;16.02;5.75;;;;;;;15.80;100.00;100552.88;5042384;28;20041;-66
2022/09/25 00:07:34;;;;;;;14.98;5.78;;;;;;;15.80;100.00;100550.19;5037383;28;20060;-66
2022/09/25 00:10:00;;;;;;;11.77;5.15;;;;;;;15.81;100.00;100554.47;5049417;28;20162;-66
2022/09/25 00:12:25;;;;;;;11.95;5.05;;;;;;;15.83;100.00;100559.50;5044439;28;20131;-66
2022/09/25 00:14:51;;;;;;;15.38;5.60;;;;;;;15.76;100.00;100554.84;5047967;28;20041;-66
2022/09/25 00:17:17;;;;;;;12.07;4.82;;;;;;;15.74;100.00;100553.66;5044783;28;20109;-66
2022/09/25 00:19:51;;;;;;;11.93;5.05;;;;;;;15.79;100.00;100548.63;5049171;28;20509;-66
2022/09/25 00:22:23;;;;;;;13.63;5.38;;;;;;;15.81;100.00;100553.69;5042993;28;20122;-66
2022/09/25 00:24:49;;;;;;;15.30;5.40;;;;;;;15.76;100.00;100546.69;5030665;28;20048;-66
2022/09/25 00:27:17;;;;;;;14.25;5.85;;;;;;;15.75;100.00;100547.09;5049142;28;20052;-66
2022/09/25 00:29:42;;;;;;;11.52;5.38;;;;;;;15.72;100.00;100542.44;5029548;28;20459;-66
2022/09/25 00:32:12;;;;;;;13.35;4.97;;;;;;;15.78;100.00;100540.88;5048395;28;20035;-66
2022/09/25 00:34:38;;;;;;;14.88;5.30;;;;;;;15.84;100.00;100555.59;5048273;28;20048;-66
2022/09/25 00:37:03;;;;;;;11.18;4.63;;;;;;;15.80;100.00;100543.97;5032494;28;20032;-66
2022/09/25 00:39:30;;;;;;;15.00;4.72;;;;;;;15.81;100.00;100546.31;5052199;28;20036;-66
2022/09/25 00:41:55;;;;;;;14.18;4.65;;;;;;;15.73;100.00;100550.19;5052173;28;20033;-66
2022/09/25 00:44:57;;;;;;;10.70;4.95;;;;;;;15.74;100.00;100546.31;5051347;28;20049;-66
2022/09/25 00:47:34;;;;;;;11.65;4.70;;;;;;;15.74;100.00;100549.03;5034505;28;20049;-66
2022/09/25 00:50:03;;;;;;;14.48;5.45;;;;;;;15.70;100.00;100556.41;5041839;28;20029;-66
2022/09/25 00:52:30;;;;;;;13.02;5.63;;;;;;;15.71;100.00;100551.75;5052543;28;20466;-66
2022/09/25 00:55:00;;;;;;;14.50;5.22;;;;;;;15.65;100.00;100553.31;5050011;28;20029;-66
2022/09/25 00:57:29;;;;;;;11.30;4.82;;;;;;;15.65;100.00;100547.88;5051592;28;20037;-66
2022/09/25 01:00:01;;;;;;;11.95;5.20;;;;;;;15.70;100.00;100550.97;5052744;28;20037;-66
2022/09/25 01:02:28;;;;;;;;;;;;;;;15.72;100.00;100543.22;5053046;28;20494;-66
2022/09/25 01:04:58;;;;;;;11.25;5.07;;;;;;;15.73;100.00;100546.72;5049798;28;19959;-66
2022/09/25 01:07:24;;;;;;;10.55;4.97;;;;;;;15.74;100.00;100535.44;5039150;28;20043;-66
2022/09/25 01:09:49;;;;;;;11.95;4.90;;;;;;;15.71;100.00;100544.38;5050760;28;20037;-66
2022/09/25 01:12:15;;;;;;;11.48;4.47;;;;;;;15.70;100.00;100540.09;5046737;28;20040;-66
2022/09/25 01:14:41;;;;;;;14.75;5.15;;;;;;;15.65;100.00;100539.75;5052378;28;20401;-66
2022/09/25 01:17:28;;;;;;;12.93;4.93;;;;;;;15.68;100.00;100544.41;5052115;28;20102;-66
2022/09/25 01:20:02;;;;;;;13.00;5.07;;;;;;;15.68;100.00;100538.97;5049326;28;20457;-66
2022/09/25 01:23:02;;;;;;;12.80;5.30;;;;;;;15.67;100.00;100538.19;5051632;28;20033;-66
2022/09/25 01:25:45;;;;;;;14.73;5.32;;;;;;;15.64;100.00;100541.66;5050524;28;20435;-66
2022/09/25 01:28:31;;;;;;;11.40;4.55;;;;;;;15.63;100.00;100545.56;5040998;28;20045;-66
2022/09/25 01:31:09;;;;;;;12.93;5.50;;;;;;;15.65;100.00;100551.38;5050123;28;20045;-66
2022/09/25 01:33:45;;;;;;;15.15;5.13;;;;;;;15.73;100.00;100547.50;5030237;28;20052;-66
2022/09/25 01:36:16;;;;;;;12.88;5.13;;;;;;;15.70;100.00;100545.53;5051504;28;20378;-66
2022/09/25 01:38:50;;;;;;;12.25;5.05;;;;;;;15.73;100.00;100554.84;5047842;28;20052;-66
2022/09/25 01:41:28;;;;;;;11.85;5.30;;;;;;;15.74;100.00;100550.97;5051429;28;20501;-66
2022/09/25 01:44:12;;;;;;;11.77;4.97;;;;;;;15.72;100.00;100547.84;5048414;28;20037;-66
2022/09/25 01:46:46;;;;;;;14.70;5.28;;;;;;;15.74;100.00;100548.25;5045581;28;20090;-66
2022/09/25 01:49:41;;;;;;;11.25;4.80;;;;;;;15.74;100.00;100550.97;5050876;28;20032;-66
2022/09/25 01:52:12;;;;;;;9.88;4.80;;;;;;;15.74;100.00;100550.97;5030731;28;20049;-66
2022/09/25 01:54:48;;;;;;;18.98;5.00;;;;;;;15.67;100.00;100551.75;5049960;28;20489;-67
2022/09/25 01:57:30;;;;;;;17.63;5.03;;;;;;;15.69;100.00;100545.94;5041573;28;20036;-66
2022/09/25 02:00:03;;;;;;;15.73;5.00;;;;;;;15.71;100.00;100536.25;5036048;28;20091;-66
2022/09/25 02:02:42;;;;;;;14.07;6.28;;;;;;;15.74;100.00;100535.44;5039045;28;20098;-67
2022/09/25 02:05:20;;;;;;;14.30;4.55;;;;;;;15.75;100.00;100542.44;5046904;28;20028;-66
2022/09/25 02:07:54;;;;;;;16.00;5.35;;;;;;;15.76;100.00;100540.47;5029111;28;20041;-67
2022/09/25 02:10:28;;;;;;;17.27;5.35;;;;;;;15.75;100.00;100541.66;5033263;28;20037;-66
2022/09/25 02:13:02;;;;;;;12.57;4.70;;;;;;;15.76;100.00;100541.25;5040023;28;20034;-66
2022/09/25 02:15:31;;;;;;;11.13;3.70;;;;;;;15.78;100.00;100535.44;5032516;28;20037;-66
2022/09/25 02:21:21;;;;;;;11.93;4.75;;;;;;;15.70;100.00;100542.81;5044954;28;20047;-66
2022/09/25 02:24:10;;;;;;;13.57;5.35;;;;;;;15.66;100.00;100544.03;5046003;28;20032;-66
2022/09/25 02:26:37;;;;;;;14.15;5.20;;;;;;;15.63;100.00;100537.41;5051240;28;20037;-66
2022/09/25 02:29:03;;;;;;;13.02;4.80;;;;;;;15.58;100.00;100537.81;5047085;28;20032;-66
2022/09/25 02:31:39;;;;;;;11.40;4.88;;;;;;;15.61;100.00;100536.25;5051208;28;20087;-66
2022/09/25 02:34:05;;;;;;;13.45;4.50;;;;;;;15.67;100.00;100537.41;5036836;28;20025;-66
2022/09/25 02:36:32;;;;;;;16.05;4.97;;;;;;;15.68;100.00;100534.28;5041293;28;20047;-66
2022/09/25 02:39:00;;;;;;;16.27;5.28;;;;;;;15.70;100.00;100542.06;5047055;28;20032;-66
2022/09/25 02:42:01;;;;;;;10.75;4.53;;;;;;;15.70;100.00;100537.41;5045383;28;20040;-66
2022/09/25 02:45:05;;;;;;;11.95;4.40;;;;;;;15.71;100.00;100536.25;5019772;28;20033;-66
2022/09/25 02:47:54;;;;;;;11.32;4.38;;;;;;;15.74;100.00;100529.22;5028227;28;20033;-66
2022/09/25 02:50:26;;;;;;;15.48;4.90;;;;;;;15.67;100.00;100538.19;4997729;28;20332;-66
2022/09/25 02:53:04;;;;;;;11.98;4.45;;;;;;;15.69;100.00;100535.84;5039283;28;20044;-66
2022/09/25 02:55:41;;;;;;;11.15;4.82;;;;;;;15.69;100.00;100533.16;5048616;28;20412;-66
2022/09/25 02:58:15;;;;;;;10.73;4.57;;;;;;;15.67;100.00;100529.25;5048999;28;20037;-66
2022/09/25 03:00:45;;;;;;;11.20;4.00;;;;;;;15.62;100.00;100525.00;5049241;28;20429;-66
2022/09/25 03:03:14;;;;;;;12.48;4.40;;;;;;;15.65;100.00;100532.38;5038170;28;20497;-67
2022/09/25 03:05:40;;;;;;;11.07;4.65;;;;;;;15.69;100.00;100532.34;5050353;28;20051;-66
2022/09/25 03:10:51;;;;;;;12.07;4.30;;;;;;;15.64;100.00;100527.34;5043688;28;20099;-66
2022/09/25 03:13:21;;;;;;;8.63;3.90;;;;;;;15.67;100.00;100531.97;5050017;28;20037;-66
2022/09/25 03:15:54;;;;;;;9.63;3.88;;;;;;;15.73;100.00;100530.41;5032402;28;20036;-66
2022/09/25 03:18:20;;;;;;;9.65;4.22;;;;;;;15.66;100.00;100528.47;5045735;28;20065;-66
2022/09/25 03:20:46;;;;;;;10.02;3.63;;;;;;;15.68;100.00;100525.41;5032291;28;20234;-66
2022/09/25 03:23:11;;;;;;;9.02;3.95;;;;;;;15.70;100.00;100526.53;5044263;28;20013;-66
2022/09/25 03:25:37;;;;;;;9.98;4.18;;;;;;;15.74;100.00;100524.59;5046779;28;20345;-66
2022/09/25 03:28:07;;;;;;;9.02;4.10;;;;;;;15.68;100.00;100523.44;5050129;28;20036;-66
2022/09/25 03:30:33;;;;;;;10.07;4.22;;;;;;;15.69;100.00;100519.56;5049943;28;20082;-66
2022/09/25 03:32:58;;;;;;;9.52;4.07;;;;;;;15.70;100.00;100523.81;5050448;28;20042;-66
2022/09/25 03:35:24;;;;;;;12.10;4.03;;;;;;;15.67;100.00;100530.03;5046199;28;20501;-66
2022/09/25 03:37:50;;;;;;;15.00;4.15;;;;;;;15.65;100.00;100526.94;5044055;28;20028;-66
2022/09/25 03:40:15;;;;;;;9.55;3.90;;;;;;;15.69;100.00;100525.00;5043234;28;20054;-67
2022/09/25 03:42:42;;;;;;;16.40;4.15;;;;;;;15.69;100.00;100527.72;5048625;28;20537;-66
2022/09/25 03:45:10;;;;;;;11.63;4.80;;;;;;;15.69;100.00;100533.16;5049519;28;20326;-66
2022/09/25 03:47:35;;;;;;;13.40;4.90;;;;;;;15.72;100.00;100526.13;5032120;28;20041;-66
2022/09/25 03:50:01;;;;;;;10.77;4.20;;;;;;;15.67;100.00;100524.63;5051625;23;20635;-69
2022/09/25 03:52:26;;;;;;;8.77;3.65;;;;;;;15.69;100.00;100525.00;5034238;28;20431;-69
2022/09/25 03:54:52;;;;;;;9.73;4.40;;;;;;;15.59;100.00;100522.28;5049281;28;20086;-69
2022/09/25 03:57:17;;;;;;;12.48;4.72;;;;;;;15.55;100.00;100516.88;5050115;28;20029;-68
2022/09/25 03:59:42;;;;;;;14.10;4.57;;;;;;;15.61;100.00;100518.03;5050348;28;20040;-69
2022/09/25 04:02:09;;;;;;;11.38;3.78;;;;;;;15.61;100.00;100518.03;5042941;28;20060;-69
2022/09/25 04:04:36;;;;;;;12.20;4.65;;;;;;;15.59;100.00;100514.94;5049359;28;20033;-69
2022/09/25 04:07:02;;;;;;;12.65;4.95;;;;;;;15.60;100.00;100510.28;5050099;28;20032;-69
2022/09/25 04:09:27;;;;;;;12.52;4.00;;;;;;;15.54;100.00;100515.34;5025883;28;20041;-69
2022/09/25 04:11:54;;;;;;;13.75;4.03;;;;;;;15.55;100.00;100518.81;5034942;28;20048;-69
2022/09/25 04:14:20;;;;;;;9.45;4.13;;;;;;;15.55;100.00;100511.44;5035026;28;20400;-69
2022/09/25 04:16:46;;;;;;;11.75;4.55;;;;;;;15.58;100.00;100521.50;5053319;28;20045;-69
2022/09/25 04:19:11;;;;;;;8.85;4.38;;;;;;;15.59;100.00;100516.88;5030575;28;20043;-69
2022/09/25 04:21:37;;;;;;;14.70;4.25;;;;;;;15.54;100.00;100507.19;5039738;28;20029;-69
2022/09/25 04:26:46;;;;;;;11.65;3.85;;;;;;;15.59;100.00;100512.22;5053355;28;20040;-69
2022/09/25 04:29:13;;;;;;;11.48;4.13;;;;;;;15.62;100.00;100508.72;5046487;28;20041;-69
2022/09/25 04:31:38;;;;;;;9.18;3.53;;;;;;;15.62;100.00;100516.09;5052577;28;20051;-68
2022/09/25 04:34:04;;;;;;;11.45;4.57;;;;;;;15.60;100.00;100516.47;5051293;28;20044;-69
2022/09/25 04:36:29;;;;;;;12.90;4.45;;;;;;;15.61;100.00;100517.25;5035392;28;20023;-69
2022/09/25 04:38:55;;;;;;;12.57;4.10;;;;;;;15.63;100.00;100523.84;5052986;28;20700;-69
2022/09/25 04:41:20;;;;;;;15.00;3.97;;;;;;;15.65;100.00;100518.00;5034528;28;20048;-69
2022/09/25 04:43:46;;;;;;;12.70;4.30;;;;;;;15.63;100.00;100518.41;5047262;28;20041;-69
2022/09/25 04:46:12;;;;;;;13.23;4.78;;;;;;;15.60;100.00;100515.72;5053801;28;20124;-69
2022/09/25 04:48:38;;;;;;;14.65;4.40;;;;;;;15.59;100.00;100525.00;5050091;28;20032;-69
2022/09/25 04:51:04;;;;;;;12.20;4.53;;;;;;;15.58;100.00;100518.78;5018279;28;20397;-69
2022/09/25 04:53:33;;;;;;;15.88;5.28;;;;;;;15.57;100.00;100514.56;5049211;28;20128;-69
2022/09/25 04:56:06;;;;;;;11.15;4.63;;;;;;;15.55;100.00;100519.59;5052673;28;20108;-69
2022/09/25 04:58:31;;;;;;;14.35;4.22;;;;;;;15.57;100.00;100509.13;5052996;28;20029;-69
2022/09/25 05:01:05;;;;;;;15.65;5.05;;;;;;;15.53;100.00;100521.13;5049856;28;20086;-69
2022/09/25 05:03:31;;;;;;;15.27;4.43;;;;;;;15.60;100.00;100516.47;5051431;28;20546;-69
2022/09/25 05:05:58;;;;;;;13.77;4.28;;;;;;;15.63;100.00;100520.34;5052307;28;20033;-68
2022/09/25 05:08:24;;;;;;;11.63;4.63;;;;;;;15.61;100.00;100523.47;5052949;28;20029;-68
2022/09/25 05:10:49;;;;;;;14.05;4.18;;;;;;;15.62;100.00;100516.84;5051369;28;20056;-68
2022/09/25 05:13:14;;;;;;;14.57;4.95;;;;;;;15.59;100.00;100523.06;5034299;28;20025;-69
2022/09/25 05:15:40;;;;;;;13.43;4.97;;;;;;;15.56;100.00;100523.09;5052363;28;20516;-69
2022/09/25 05:18:12;;;;;;;14.77;5.80;;;;;;;15.55;100.00;100519.59;5052877;28;20071;-68
2022/09/25 05:20:37;;;;;;;14.07;5.03;;;;;;;15.62;100.00;100519.56;5046643;28;20139;-68
2022/09/25 05:23:03;;;;;;;15.60;5.53;;;;;;;15.58;100.00;100521.50;5033584;28;20029;-68
2022/09/25 05:25:30;;;;;;;14.85;4.47;;;;;;;15.61;100.00;100515.31;5042804;28;20032;-68
2022/09/25 05:27:58;;;;;;;13.02;4.32;;;;;;;15.57;100.00;100519.19;5034820;28;20512;-68
2022/09/25 05:30:25;;;;;;;14.63;5.05;;;;;;;15.61;100.00;100515.31;5051754;28;20405;-68
2022/09/25 05:32:51;;;;;;;10.73;4.53;;;;;;;15.59;100.00;100522.28;5049029;28;20500;-69
2022/09/25 05:35:18;;;;;;;13.95;5.70;;;;;;;15.61;100.00;100519.97;5044572;28;20060;-69
2022/09/25 05:37:44;;;;;;;11.57;4.35;;;;;;;15.59;100.00;100520.38;5052588;28;20066;-69
2022/09/25 05:40:09;;;;;;;13.57;4.88;;;;;;;15.57;100.00;100519.97;5052172;28;20103;-69
2022/09/25 05:42:35;;;;;;;15.23;5.93;;;;;;;15.62;100.00;100522.28;5051889;28;20041;-69
2022/09/25 05:45:00;;;;;;;15.90;5.50;;;;;;;15.54;100.00;100520.78;5033388;28;20037;-68
2022/09/25 05:47:26;;;;;;;14.88;5.65;;;;;;;15.54;100.00;100526.19;5052577;28;20033;-69
2022/09/25 05:49:51;;;;;;;14.90;5.80;;;;;;;15.57;100.00;100514.56;5026335;28;20036;-69
2022/09/25 05:52:16;;;;;;;18.05;5.93;;;;;;;15.58;100.00;100513.38;5025372;28;20021;-68
2022/09/25 05:54:42;;;;;;;14.65;5.22;;;;;;;15.63;100.00;100518.41;5048970;28;20033;-68
2022/09/25 05:57:07;;;;;;;13.25;5.38;;;;;;;15.57;100.00;100519.97;5052270;28;20033;-69
2022/09/25 05:59:33;;;;;;;14.95;5.72;;;;;;;15.61;100.00;100515.31;5046731;28;20047;-68
2022/09/25 06:01:59;;;;;;;14.23;5.40;;;;;;;15.65;100.00;100510.66;5046422;28;20041;-69
2022/09/25 06:04:25;;;;;;;14.95;6.40;;;;;;;15.65;100.00;100512.59;5051067;28;20049;-69
2022/09/25 06:06:51;;;;;;;17.02;5.47;;;;;;;15.67;100.00;100507.53;5052216;28;20032;-69
2022/09/25 06:09:17;;;;;;;15.73;5.80;;;;;;;15.70;100.00;100504.06;5026196;28;20126;-69
2022/09/25 06:11:46;;;;;;;15.27;4.72;;;;;;;15.76;100.00;100502.47;5051233;28;20075;-69
2022/09/25 06:14:12;;;;;;;13.05;4.63;;;;;;;15.82;100.00;100509.81;5051142;28;20111;-68
2022/09/25 06:16:38;;;;;;;19.27;6.47;;;;;;;15.87;100.00;100505.94;5022498;28;20039;-70
2022/09/25 06:19:04;;;;;;;19.10;6.40;;;;;;;15.88;100.00;100507.47;5051306;28;20033;-69
2022/09/25 06:21:29;;;;;;;16.33;5.40;;;;;;;15.88;100.00;100502.03;5050694;28;20060;-70
2022/09/25 06:23:54;;;;;;;16.23;5.57;;;;;;;15.85;100.00;100506.31;5050126;28;20162;-70
2022/09/25 06:26:20;;;;;;;13.27;5.32;;;;;;;15.85;100.00;100506.31;5051788;28;20040;-70
2022/09/25 06:28:46;;;;;;;15.65;4.82;;;;;;;15.90;100.00;100510.56;5051468;28;20552;-70
2022/09/25 06:31:11;;;;;;;19.33;6.05;;;;;;;15.90;100.00;100507.84;5050217;28;20112;-70
2022/09/25 06:33:37;;;;;;;14.98;6.20;;;;;;;15.93;100.00;100498.94;5047373;28;20115;-70
2022/09/25 06:36:04;;;;;;;18.48;5.68;;;;;;;15.94;100.00;100506.69;5049299;28;20036;-69
2022/09/25 06:38:32;;;;;;;17.77;6.05;;;;;;;15.95;100.00;100504.75;5026458;28;20039;-69
2022/09/25 06:40:58;;;;;;;15.90;5.18;;;;;;;16.00;100.00;100502.38;5050443;28;20041;-68
2022/09/25 06:43:24;;;;;;;15.57;5.28;;;;;;;16.01;100.00;100509.34;5050307;28;20036;-68
2022/09/25 06:45:50;;;;;;;11.77;4.25;;;;;;;16.04;100.00;100511.31;5050776;28;20024;-69
2022/09/25 06:48:16;;;;;;;11.50;4.93;;;;;;;16.05;100.00;100506.63;5049084;28;20577;-70
2022/09/25 06:50:48;;;;;;;14.38;5.57;;;;;;;16.04;100.00;100511.31;5044576;28;20036;-69
2022/09/25 06:53:15;;;;;;;12.02;4.95;;;;;;;16.07;100.00;100505.06;5044271;28;20032;-69
2022/09/25 06:55:44;;;;;;;13.32;5.18;;;;;;;16.10;100.00;100514.38;5026376;28;20072;-69
2022/09/25 06:58:11;;;;;;;14.52;5.93;;;;;;;16.08;100.00;100514.78;5032529;28;20436;-69
2022/09/25 07:00:37;;;;;;;17.85;4.68;;;;;;;16.07;100.00;100505.06;5050763;28;20102;-69
2022/09/25 07:05:47;;;;;;;13.98;4.55;;;;;;;16.14;100.00;100504.28;5043494;28;20035;-69
2022/09/25 07:08:15;;;;;;;16.33;5.10;;;;;;;16.18;100.00;100505.78;5050429;28;20501;-69
2022/09/25 07:10:52;;;;;;;19.10;5.93;;;;;;;16.22;100.00;100511.19;5040986;28;20036;-68
2022/09/25 07:13:23;;;;;;;11.82;4.93;;;;;;;16.24;100.00;100506.13;5046999;28;20535;-69
2022/09/25 07:15:53;;;;;;;11.98;4.70;;;;;;;16.28;100.00;100504.97;5049538;28;20033;-69
2022/09/25 07:18:20;;;;;;;12.90;4.88;;;;;;;16.28;100.00;100501.47;5050236;28;20045;-68
2022/09/25 07:20:45;;;;;;;17.92;5.03;;;;;;;16.32;100.00;100501.47;5042274;28;20569;-69
2022/09/25 07:23:16;;;;;;;14.93;4.50;;;;;;;16.34;100.00;100510.00;5046523;28;20108;-68
2022/09/25 07:25:42;;;;;;;14.82;4.65;;;;;;;16.32;100.00;100518.53;5039243;28;20499;-68
2022/09/25 07:28:08;;;;;;;12.10;4.75;;;;;;;16.37;100.00;100518.13;5046472;28;20025;-69
2022/09/25 07:30:34;;;;;;;11.85;4.50;;;;;;;16.38;100.00;100513.44;5043956;28;20037;-69
2022/09/25 07:33:00;;;;;;;12.38;5.00;;;;;;;16.40;100.00;100521.97;5050454;28;20120;-68
2022/09/25 07:35:26;;;;;;;10.88;4.35;;;;;;;16.41;100.00;100518.09;5045269;28;20047;-69
2022/09/25 07:37:55;;;;;;;12.88;4.55;;;;;;;16.41;100.00;100529.75;5025342;28;20033;-69
2022/09/25 07:40:20;;;;;;;17.20;5.03;;;;;;;16.41;100.00;100518.88;5029781;28;20496;-69
2022/09/25 07:42:46;;;;;;;15.93;4.80;;;;;;;16.40;100.00;100533.63;5049123;28;20112;-69
2022/09/25 07:45:11;;;;;;;11.75;4.43;;;;;;;16.41;100.00;100524.31;5046204;28;20052;-68
2022/09/25 07:47:36;;;;;;;13.15;4.22;;;;;;;16.42;100.00;100523.13;5050086;28;20120;-69
2022/09/25 07:50:02;;;;;;;15.80;5.25;;;;;;;16.42;100.00;100531.28;5052550;28;20076;-68
2022/09/25 07:52:28;;;;;;;12.23;5.15;;;;;;;16.41;100.00;100529.75;5049813;28;20029;-69
2022/09/25 07:54:53;;;;;;;16.25;5.43;;;;;;;16.44;100.00;100526.22;5032282;28;20058;-69
2022/09/25 07:57:19;;;;;;;19.02;5.40;;;;;;;16.46;100.00;100523.09;5019418;28;20405;-68
2022/09/25 07:59:48;;;;;;;11.80;4.57;;;;;;;16.45;100.00;100529.72;5048401;28;20047;-69
2022/09/25 08:02:13;;;;;;;13.45;4.75;;;;;;;16.50;100.00;100521.97;5042737;28;20107;-69
2022/09/25 08:04:39;;;;;;;13.65;4.78;;;;;;;16.51;100.00;100526.22;5049269;28;20120;-69
2022/09/25 08:07:05;;;;;;;14.05;4.95;;;;;;;16.54;100.00;100536.31;5050083;28;20036;-69
2022/09/25 08:09:30;;;;;;;11.55;4.95;;;;;;;16.55;100.00;100531.66;5029625;28;20032;-69
2022/09/25 08:11:56;;;;;;;10.60;4.82;;;;;;;16.54;100.00;100527.38;5051295;28;20123;-69
2022/09/25 08:14:21;;;;;;;15.90;5.03;;;;;;;16.57;100.00;100526.59;5033572;28;20040;-69
2022/09/25 08:16:48;;;;;;;13.05;5.28;;;;;;;16.58;100.00;100530.84;5031613;28;20021;-69
2022/09/25 08:19:16;;;;;;;13.88;4.90;;;;;;;16.56;100.00;100533.97;5030331;28;20036;-69
2022/09/25 08:21:42;;;;;;;14.68;5.10;;;;;;;16.54;100.00;100528.16;5052220;28;20115;-69
2022/09/25 08:24:10;;;;;;;13.10;4.20;;;;;;;16.58;100.00;100533.56;5051941;28;20041;-69
2022/09/25 08:26:35;;;;;;;14.98;5.35;;;;;;;16.59;100.00;100532.41;5024856;28;20037;-69
2022/09/25 08:29:02;;;;;;;13.40;4.72;;;;;;;16.60;100.00;100525.78;5050905;28;20036;-69
2022/09/25 08:31:28;;;;;;;13.38;5.13;;;;;;;16.64;100.00;100527.31;5030005;28;20081;-70
2022/09/25 08:33:54;;;;;;;13.32;4.22;;;;;;;16.65;100.00;100533.50;5049728;28;20032;-69
2022/09/25 08:36:20;;;;;;;11.68;4.85;;;;;;;16.66;100.00;100535.84;5051342;28;20069;-70
2022/09/25 08:38:46;;;;;;;11.30;4.85;;;;;;;16.67;100.00;100534.66;5050323;28;20041;-70
2022/09/25 08:41:23;;;;;;;10.55;4.70;;;;;;;16.69;100.00;100529.59;5052901;28;20029;-69
2022/09/25 08:43:55;;;;;;;9.73;4.22;;;;;;;16.69;100.00;100528.81;5018733;28;20124;-69
2022/09/25 08:49:13;;;;;;;10.15;4.30;;;;;;;16.66;100.00;100532.34;5041467;28;20032;-70
2022/09/25 08:51:45;;;;;;;10.98;4.55;;;;;;;16.67;100.00;100529.22;5027912;28;20032;-69
2022/09/25 08:54:26;;;;;;;12.32;4.72;;;;;;;16.66;100.00;100529.63;5051749;28;20029;-69
2022/09/25 08:57:26;;;;;;;11.88;5.00;;;;;;;16.68;100.00;100532.72;5049885;28;20090;-69
2022/09/25 08:59:55;;;;;;;10.07;4.20;;;;;;;16.70;100.00;100527.66;5026534;28;20102;-69
2022/09/25 09:02:25;;;;;;;15.13;5.95;;;;;;;16.73;100.00;100530.34;5047269;28;20083;-69
2022/09/25 09:04:56;;;;;;;11.32;4.32;;;;;;;16.74;100.00;100542.00;5024515;28;20033;-69
2022/09/25 09:07:33;;;;;;;11.10;4.20;;;;;;;16.74;100.00;100534.59;5049900;28;20489;-70
2022/09/25 09:10:36;;;;;;;9.82;4.50;;;;;;;16.76;100.00;100528.78;5034715;28;20497;-69
2022/09/25 09:13:17;;;;;;;11.48;4.30;;;;;;;16.71;100.00;100532.69;5029266;28;20045;-68
2022/09/25 09:16:01;;;;;;;9.02;3.97;;;;;;;16.71;100.00;100546.28;5050280;28;20378;-68
2022/09/25 09:18:29;;;;;;;10.98;4.72;;;;;;;16.75;100.00;100529.94;5052696;28;20025;-69
2022/09/25 09:21:06;;;;;;;12.20;4.50;;;;;;;16.73;100.00;100529.56;5051706;28;20104;-70
2022/09/25 09:23:48;;;;;;;11.43;4.10;;;;;;;16.74;100.00;100526.44;5044923;28;20032;-69
2022/09/25 09:26:30;;;;;;;8.15;4.20;;;;;;;16.75;100.00;100524.50;5047738;28;20055;-69
2022/09/25 09:29:12;;;;;;;8.63;3.95;;;;;;;16.75;100.00;100532.66;5039590;28;20033;-69
2022/09/25 09:31:44;;;;;;;;;;;;;;;16.74;100.00;100525.69;5030493;28;20033;-68
2022/09/25 09:34:16;;;;;;;10.15;4.47;;;;;;;16.74;100.00;100525.69;5032192;28;20427;-69
2022/09/25 09:36:59;;;;;;;10.63;4.35;;;;;;;16.74;100.00;100531.13;5052037;28;20083;-69
2022/09/25 09:39:35;;;;;;;10.50;4.40;;;;;;;16.78;100.00;100529.16;5033749;28;20498;-69
2022/09/25 09:42:08;;;;;;;9.00;4.05;;;;;;;16.77;100.00;100528.38;5032883;28;20025;-69
2022/09/25 09:44:52;;;;;;;9.05;4.30;;;;;;;16.76;100.00;100532.25;5051287;28;20045;-69
2022/09/25 09:47:29;;;;;;;10.32;4.35;;;;;;;16.77;100.00;100530.31;5015622;28;20134;-69
2022/09/25 09:50:05;;;;;;;7.82;3.95;;;;;;;16.79;100.00;100531.47;5056517;22;20032;-67
2022/09/25 09:52:41;;;;;;;8.05;3.78;;;;;;;16.76;100.00;100529.53;5028837;28;20041;-67
2022/09/25 09:55:12;;;;;;;7.90;4.07;;;;;;;16.75;100.00;100524.50;5027462;28;20041;-65
2022/09/25 09:57:52;;;;;;;6.53;3.28;;;;;;;16.76;100.00;100520.63;5031216;28;20044;-67
2022/09/25 10:00:19;;;;;;;9.23;3.75;;;;;;;16.74;100.00;100525.69;5030764;28;20045;-66
2022/09/25 10:03:19;;;;;;;8.18;2.97;;;;;;;16.74;100.00;100531.13;5028169;28;20474;-67
2022/09/25 10:05:50;;;;;;;7.03;3.03;;;;;;;16.72;100.00;100528.03;5027831;28;20029;-67
2022/09/25 10:08:16;;;;;;;4.97;2.75;;;;;;;16.72;100.00;100525.31;5028265;28;20042;-65
2022/09/25 10:10:45;;;;;;;5.22;2.92;;;;;;;16.72;100.00;100528.03;5029370;28;20029;-66
2022/09/25 10:13:19;;;;;;;4.47;2.78;;;;;;;16.74;100.00;100522.97;5028604;28;20038;-67
2022/09/25 10:15:56;;;;;;;5.07;2.72;;;;;;;16.75;100.00;100516.34;5023986;28;20037;-66
2022/09/25 10:18:27;;;;;;;7.10;3.13;;;;;;;16.74;100.00;100517.53;5028373;28;20493;-67
2022/09/25 10:21:07;;;;;;;4.60;2.20;;;;;;;16.74;100.00;100521.00;5025035;28;20037;-67
2022/09/25 10:23:32;;;;;;;6.03;2.85;;;;;;;16.76;100.00;100518.66;5024911;28;20330;-67
2022/09/25 10:25:58;;;;;;;6.45;2.80;;;;;;;16.78;100.00;100515.56;5010902;28;20056;-66
2022/09/25 10:28:35;;;;;;;3.83;2.35;;;;;;;16.79;100.00;100519.81;5025493;28;20462;-66
2022/09/25 10:31:04;;;;;;;7.03;2.70;;;;;;;16.76;100.00;100515.19;5027877;28;20215;-66
2022/09/25 10:33:30;;;;;;;5.60;2.75;;;;;;;16.81;100.00;100514.75;5003365;28;20560;-66
2022/09/25 10:35:57;;;;;;;5.50;2.92;;;;;;;16.83;100.00;100512.41;5024816;28;20097;-66
2022/09/25 10:38:31;;;;;;;5.28;2.88;;;;;;;16.83;100.00;100515.91;5029637;28;20116;-66
2022/09/25 10:41:05;;;;;;;8.20;3.05;;;;;;;16.80;100.00;100515.94;4998497;28;20044;-66
2022/09/25 10:43:31;;;;;;;7.88;3.53;;;;;;;16.81;100.00;100509.31;5014887;28;20099;-66
2022/09/25 10:46:14;;;;;;;7.43;3.35;;;;;;;16.88;100.00;100517.41;5029386;28;20037;-66
2022/09/25 10:51:25;;;;;;;6.05;3.10;;;;;;;16.80;100.00;100511.25;5028345;28;20044;-66
2022/09/25 10:54:12;;;;;;;5.15;2.65;;;;;;;16.82;100.00;100511.63;5030670;28;20468;-66
2022/09/25 10:56:38;;;;;;;3.17;1.88;;;;;;;16.80;100.00;100513.22;5015753;28;20099;-66
2022/09/25 10:59:21;;;;;;;3.33;1.75;;;;;;;16.79;100.00;100514.38;5027770;28;20446;-67
2022/09/25 11:01:52;;;;;;;2.85;1.70;;;;;;;16.71;100.00;100510.94;5026844;28;20140;-66
2022/09/25 11:04:26;;;;;;;3.40;2.00;;;;;;;16.71;100.00;100507.44;5011646;28;20525;-66
2022/09/25 11:06:57;;;;;;;4.00;2.03;;;;;;;16.75;100.00;100521.78;5032312;28;20033;-66
2022/09/25 11:09:27;;;;;;;4.90;1.85;;;;;;;16.73;100.00;100507.81;5016777;28;20132;-66
2022/09/25 11:12:18;;;;;;;3.42;2.10;;;;;;;16.76;100.00;100513.22;5008277;28;20033;-66
2022/09/25 11:15:05;;;;;;;5.50;1.85;;;;;;;16.79;100.00;100514.38;5009646;28;20048;-66
2022/09/25 11:17:42;;;;;;;3.90;2.10;;;;;;;16.80;100.00;100507.78;5029037;28;20033;-66
2022/09/25 11:20:15;;;;;;;4.97;2.05;;;;;;;16.79;100.00;100514.38;5025472;28;20036;-66
2022/09/25 11:22:46;;;;;;;4.03;2.00;;;;;;;16.81;100.00;100503.88;4981676;28;20124;-66
2022/09/25 11:25:35;;;;;;;6.72;2.47;;;;;;;16.84;100.00;100503.09;4981273;28;20044;-66
2022/09/25 11:28:15;;;;;;;4.35;2.58;;;;;;;16.82;100.00;100505.44;5021402;28;20045;-66
2022/09/25 11:30:53;;;;;;;4.57;2.00;;;;;;;16.82;100.00;100505.44;5019263;28;20140;-68
2022/09/25 11:33:28;;;;;;;5.05;2.72;;;;;;;16.80;100.00;100503.09;5024715;28;20041;-66
2022/09/25 11:35:54;;;;;;;5.68;3.15;;;;;;;16.81;100.00;100510.09;5020358;28;20535;-67
2022/09/25 11:41:34;;;;;;;7.18;3.30;;;;;;;16.84;100.00;100505.81;5024086;28;20547;-66
2022/09/25 11:44:27;;;;;;;5.82;3.25;;;;;;;16.81;100.00;100510.09;5028280;28;20037;-66
2022/09/25 11:47:11;;;;;;;5.60;2.58;;;;;;;16.82;100.00;100510.88;5028163;28;20029;-66